Mount Moriah, Missouri
Current Conditions -  °F | °C
As of 3:36 PM on Thursday 23 Oct 2014 (Local Time) from KLWD Reporting Station
Few Clouds Few Clouds  
Wind Chill: 19°   Ceiling: Unl
Heat Index: 19°   Visibility: 10mi
Dew Point: 15°   Wind: 6mph
Humidity: 78%   Direction: 230°SW
Pressure: 30.03"   Gusts: NA
Location:  40.33°N, 93.8°W
Report Text: KLWD 232036Z AUTO 23005KT 10SM FEW011 19/15 A3003 RMK AO2 T01890150
Loading
Personal Weather Stations






























Interactive Weather Map
Tropical Storm Tracking
New forecast layout! Learn more

10-Day Weather Forecast

Advertisements
Track Severe Weather on mobile